sensor_id;sensor_type;location;lat;lon;timestamp;P1;P2;P0
35654;PMS1003;21773;50.010;19.972;2024-02-21T00:00:42;11.75;9.00;8.00
35654;PMS1003;21773;50.010;19.972;2024-02-21T00:03:45;8.25;7.00;6.00
35654;PMS1003;21773;50.010;19.972;2024-02-21T00:06:48;10.60;9.00;8.00
35654;PMS1003;21773;50.010;19.972;2024-02-21T00:09:52;9.25;8.25;7.00
35654;PMS1003;21773;50.010;19.972;2024-02-21T00:12:56;10.00;9.00;7.00
35654;PMS1003;21773;50.010;19.972;2024-02-21T00:16:01;9.80;8.00;7.20
35654;PMS1003;21773;50.010;19.972;2024-02-21T00:22:39;11.00;9.75;7.75
35654;PMS1003;21773;50.010;19.972;2024-02-21T00:25:42;9.50;9.00;8.00
35654;PMS1003;21773;50.010;19.972;2024-02-21T00:28:47;13.50;12.00;10.00
35654;PMS1003;21773;50.010;19.972;2024-02-21T00:31:50;13.40;9.60;8.60
35654;PMS1003;21773;50.010;19.972;2024-02-21T00:34:54;12.00;11.00;9.00
35654;PMS1003;21773;50.010;19.972;2024-02-21T00:37:57;12.00;11.00;8.60
35654;PMS1003;21773;50.010;19.972;2024-02-21T00:41:01;13.60;13.00;11.60
35654;PMS1003;21773;50.010;19.972;2024-02-21T00:44:06;14.80;12.20;11.00
35654;PMS1003;21773;50.010;19.972;2024-02-21T00:47:09;16.00;14.40;13.00
35654;PMS1003;21773;50.010;19.972;2024-02-21T00:50:13;15.00;13.00;10.20
35654;PMS1003;21773;50.010;19.972;2024-02-21T00:53:16;16.40;15.00;12.40
35654;PMS1003;21773;50.010;19.972;2024-02-21T00:56:19;13.50;11.00;9.50
35654;PMS1003;21773;50.010;19.972;2024-02-21T00:59:23;15.00;12.40;10.00
35654;PMS1003;21773;50.010;19.972;2024-02-21T01:02:26;17.00;14.00;12.00
35654;PMS1003;21773;50.010;19.972;2024-02-21T01:05:33;14.60;13.00;11.00
35654;PMS1003;21773;50.010;19.972;2024-02-21T01:08:36;14.00;13.00;11.00
35654;PMS1003;21773;50.010;19.972;2024-02-21T01:11:39;15.00;14.00;12.00
35654;PMS1003;21773;50.010;19.972;2024-02-21T01:14:43;14.60;13.00;11.00
35654;PMS1003;21773;50.010;19.972;2024-02-21T01:17:47;14.00;12.00;11.00
35654;PMS1003;21773;50.010;19.972;2024-02-21T01:20:51;17.00;14.50;11.50
35654;PMS1003;21773;50.010;19.972;2024-02-21T01:23:54;16.75;15.00;12.00
35654;PMS1003;21773;50.010;19.972;2024-02-21T01:26:57;16.40;15.00;12.80
35654;PMS1003;21773;50.010;19.972;2024-02-21T01:30:02;16.00;13.75;10.75
35654;PMS1003;21773;50.010;19.972;2024-02-21T01:33:07;21.00;17.00;13.00
35654;PMS1003;21773;50.010;19.972;2024-02-21T01:36:11;19.80;14.80;12.40
35654;PMS1003;21773;50.010;19.972;2024-02-21T01:39:14;17.00;14.00;12.00
35654;PMS1003;21773;50.010;19.972;2024-02-21T01:42:17;16.40;15.00;12.00
35654;PMS1003;21773;50.010;19.972;2024-02-21T01:45:22;18.40;14.00;11.60
35654;PMS1003;21773;50.010;19.972;2024-02-21T01:48:25;15.00;14.60;12.00
35654;PMS1003;21773;50.010;19.972;2024-02-21T01:51:29;15.00;14.00;11.00
35654;PMS1003;21773;50.010;19.972;2024-02-21T01:54:33;14.00;12.40;10.00
35654;PMS1003;21773;50.010;19.972;2024-02-21T01:57:36;15.00;13.00;10.40
35654;PMS1003;21773;50.010;19.972;2024-02-21T02:00:43;14.00;12.00;10.40
35654;PMS1003;21773;50.010;19.972;2024-02-21T02:03:47;13.00;12.50;11.00
35654;PMS1003;21773;50.010;19.972;2024-02-21T02:06:51;13.00;12.00;9.00
35654;PMS1003;21773;50.010;19.972;2024-02-21T02:09:56;13.00;12.00;10.00
35654;PMS1003;21773;50.010;19.972;2024-02-21T02:12:59;18.00;14.00;11.50
35654;PMS1003;21773;50.010;19.972;2024-02-21T02:16:04;17.60;15.60;13.60
35654;PMS1003;21773;50.010;19.972;2024-02-21T02:19:08;13.00;12.00;9.00
35654;PMS1003;21773;50.010;19.972;2024-02-21T02:22:14;15.60;13.20;11.00
35654;PMS1003;21773;50.010;19.972;2024-02-21T02:25:26;17.00;14.00;12.00
35654;PMS1003;21773;50.010;19.972;2024-02-21T02:28:29;13.25;11.00;9.00
35654;PMS1003;21773;50.010;19.972;2024-02-21T02:31:33;14.00;13.00;11.00
35654;PMS1003;21773;50.010;19.972;2024-02-21T02:34:37;13.60;11.00;9.60
35654;PMS1003;21773;50.010;19.972;2024-02-21T02:37:40;11.00;10.00;8.80
35654;PMS1003;21773;50.010;19.972;2024-02-21T02:40:52;10.40;9.20;7.80
35654;PMS1003;21773;50.010;19.972;2024-02-21T02:43:55;12.00;11.25;9.00
35654;PMS1003;21773;50.010;19.972;2024-02-21T02:46:58;12.00;11.00;9.80
35654;PMS1003;21773;50.010;19.972;2024-02-21T02:50:02;14.40;11.00;9.00
35654;PMS1003;21773;50.010;19.972;2024-02-21T02:53:05;13.00;10.00;9.00
35654;PMS1003;21773;50.010;19.972;2024-02-21T02:56:15;12.20;9.20;7.20
35654;PMS1003;21773;50.010;19.972;2024-02-21T02:59:18;10.60;9.40;7.60
35654;PMS1003;21773;50.010;19.972;2024-02-21T03:02:21;12.40;10.40;9.00
35654;PMS1003;21773;50.010;19.972;2024-02-21T03:05:24;9.25;9.25;7.25
35654;PMS1003;21773;50.010;19.972;2024-02-21T03:08:28;11.00;10.00;8.00
35654;PMS1003;21773;50.010;19.972;2024-02-21T03:11:32;8.60;8.60;7.00
35654;PMS1003;21773;50.010;19.972;2024-02-21T03:14:35;14.40;10.40;8.00
35654;PMS1003;21773;50.010;19.972;2024-02-21T03:17:39;12.00;9.40;8.00
35654;PMS1003;21773;50.010;19.972;2024-02-21T03:20:42;10.40;8.40;7.00
35654;PMS1003;21773;50.010;19.972;2024-02-21T03:23:45;9.80;8.60;7.00
35654;PMS1003;21773;50.010;19.972;2024-02-21T03:26:50;10.00;9.00;8.00
35654;PMS1003;21773;50.010;19.972;2024-02-21T03:29:53;10.40;10.00;8.40
35654;PMS1003;21773;50.010;19.972;2024-02-21T03:32:56;11.00;10.00;8.00
35654;PMS1003;21773;50.010;19.972;2024-02-21T03:35:59;11.00;9.40;7.00
35654;PMS1003;21773;50.010;19.972;2024-02-21T03:39:03;9.60;8.00;6.00
35654;PMS1003;21773;50.010;19.972;2024-02-21T03:42:08;10.00;9.40;8.00
35654;PMS1003;21773;50.010;19.972;2024-02-21T03:45:11;11.00;11.00;9.00
35654;PMS1003;21773;50.010;19.972;2024-02-21T03:48:14;10.00;9.00;7.20
35654;PMS1003;21773;50.010;19.972;2024-02-21T03:51:17;10.00;9.75;8.00
35654;PMS1003;21773;50.010;19.972;2024-02-21T03:54:20;10.50;9.50;8.00
35654;PMS1003;21773;50.010;19.972;2024-02-21T03:57:25;11.00;10.50;9.00
35654;PMS1003;21773;50.010;19.972;2024-02-21T04:00:28;11.00;9.40;7.00
35654;PMS1003;21773;50.010;19.972;2024-02-21T04:03:31;9.00;7.40;6.00
35654;PMS1003;21773;50.010;19.972;2024-02-21T04:06:34;12.60;11.00;9.00
35654;PMS1003;21773;50.010;19.972;2024-02-21T04:09:38;9.20;8.00;6.00
35654;PMS1003;21773;50.010;19.972;2024-02-21T04:12:42;11.60;10.00;8.60
35654;PMS1003;21773;50.010;19.972;2024-02-21T04:15:46;10.00;10.00;8.00
35654;PMS1003;21773;50.010;19.972;2024-02-21T04:18:49;12.25;10.50;9.00
35654;PMS1003;21773;50.010;19.972;2024-02-21T04:21:52;12.00;10.00;9.00
35654;PMS1003;21773;50.010;19.972;2024-02-21T04:24:55;13.00;12.00;11.00
35654;PMS1003;21773;50.010;19.972;2024-02-21T04:28:00;14.00;12.00;10.00
35654;PMS1003;21773;50.010;19.972;2024-02-21T04:31:03;14.00;11.60;10.00
35654;PMS1003;21773;50.010;19.972;2024-02-21T04:34:06;13.00;11.67;9.67
35654;PMS1003;21773;50.010;19.972;2024-02-21T04:37:09;11.40;9.00;7.00
35654;PMS1003;21773;50.010;19.972;2024-02-21T04:40:12;11.60;10.00;9.00
35654;PMS1003;21773;50.010;19.972;2024-02-21T04:43:17;11.40;9.00;8.00
35654;PMS1003;21773;50.010;19.972;2024-02-21T04:46:21;9.00;8.00;7.00
35654;PMS1003;21773;50.010;19.972;2024-02-21T04:49:24;10.40;9.00;7.40
35654;PMS1003;21773;50.010;19.972;2024-02-21T04:52:27;10.80;9.20;8.20
35654;PMS1003;21773;50.010;19.972;2024-02-21T04:55:31;10.00;8.00;7.00
35654;PMS1003;21773;50.010;19.972;2024-02-21T04:58:38;7.00;6.00;5.60
35654;PMS1003;21773;50.010;19.972;2024-02-21T05:01:42;6.00;6.00;5.40
35654;PMS1003;21773;50.010;19.972;2024-02-21T05:04:45;9.60;7.20;5.80
35654;PMS1003;21773;50.010;19.972;2024-02-21T05:07:49;9.00;8.00;6.00
35654;PMS1003;21773;50.010;19.972;2024-02-21T05:10:52;10.00;8.00;7.00
35654;PMS1003;21773;50.010;19.972;2024-02-21T05:13:57;9.00;9.00;8.00
35654;PMS1003;21773;50.010;19.972;2024-02-21T05:17:00;10.00;8.40;6.40
35654;PMS1003;21773;50.010;19.972;2024-02-21T05:20:04;9.00;7.80;6.00
35654;PMS1003;21773;50.010;19.972;2024-02-21T05:23:09;9.80;9.20;7.00
35654;PMS1003;21773;50.010;19.972;2024-02-21T05:26:12;7.00;6.20;5.20
35654;PMS1003;21773;50.010;19.972;2024-02-21T05:29:24;10.40;9.00;7.00
35654;PMS1003;21773;50.010;19.972;2024-02-21T05:32:27;8.25;8.00;6.25
35654;PMS1003;21773;50.010;19.972;2024-02-21T05:35:31;8.00;7.00;5.60
35654;PMS1003;21773;50.010;19.972;2024-02-21T05:38:34;8.00;8.00;7.00
35654;PMS1003;21773;50.010;19.972;2024-02-21T05:41:38;8.00;7.00;6.00
35654;PMS1003;21773;50.010;19.972;2024-02-21T05:44:42;8.60;7.60;6.60
35654;PMS1003;21773;50.010;19.972;2024-02-21T05:47:45;10.25;8.00;7.00
35654;PMS1003;21773;50.010;19.972;2024-02-21T05:50:48;7.00;6.00;5.00
35654;PMS1003;21773;50.010;19.972;2024-02-21T05:53:52;7.40;7.40;6.00
35654;PMS1003;21773;50.010;19.972;2024-02-21T05:56:55;8.00;7.00;6.00
35654;PMS1003;21773;50.010;19.972;2024-02-21T06:00:00;8.40;8.40;7.00
35654;PMS1003;21773;50.010;19.972;2024-02-21T06:03:13;8.20;7.20;6.20
35654;PMS1003;21773;50.010;19.972;2024-02-21T06:06:16;8.20;6.80;5.80
35654;PMS1003;21773;50.010;19.972;2024-02-21T06:09:19;10.40;10.00;9.00
35654;PMS1003;21773;50.010;19.972;2024-02-21T06:12:22;9.40;9.00;7.40
35654;PMS1003;21773;50.010;19.972;2024-02-21T06:15:27;8.00;7.00;6.75
35654;PMS1003;21773;50.010;19.972;2024-02-21T06:18:30;9.50;8.50;7.00
35654;PMS1003;21773;50.010;19.972;2024-02-21T06:21:33;10.00;9.00;7.00
35654;PMS1003;21773;50.010;19.972;2024-02-21T06:24:36;10.80;9.00;7.00
35654;PMS1003;21773;50.010;19.972;2024-02-21T06:27:40;8.00;6.40;5.00
35654;PMS1003;21773;50.010;19.972;2024-02-21T06:30:44;9.00;8.00;6.00
35654;PMS1003;21773;50.010;19.972;2024-02-21T06:33:47;9.00;7.50;6.00
35654;PMS1003;21773;50.010;19.972;2024-02-21T06:36:51;12.67;8.67;7.67
35654;PMS1003;21773;50.010;19.972;2024-02-21T06:39:54;9.00;8.00;6.50
35654;PMS1003;21773;50.010;19.972;2024-02-21T06:42:57;11.80;10.40;9.00
35654;PMS1003;21773;50.010;19.972;2024-02-21T06:46:02;10.40;8.40;7.40
35654;PMS1003;21773;50.010;19.972;2024-02-21T06:49:05;10.00;8.00;7.00
35654;PMS1003;21773;50.010;19.972;2024-02-21T06:52:09;9.00;7.00;6.00
35654;PMS1003;21773;50.010;19.972;2024-02-21T06:55:12;7.00;6.60;5.60
35654;PMS1003;21773;50.010;19.972;2024-02-21T06:58:15;7.25;7.00;6.00
35654;PMS1003;21773;50.010;19.972;2024-02-21T07:01:20;8.00;6.00;5.60
35654;PMS1003;21773;50.010;19.972;2024-02-21T07:04:23;5.20;5.00;4.20
35654;PMS1003;21773;50.010;19.972;2024-02-21T07:07:27;6.00;6.00;4.40
35654;PMS1003;21773;50.010;19.972;2024-02-21T07:10:32;7.00;6.00;5.00
35654;PMS1003;21773;50.010;19.972;2024-02-21T07:13:35;7.40;6.00;5.00
35654;PMS1003;21773;50.010;19.972;2024-02-21T07:16:40;5.00;5.00;4.00
35654;PMS1003;21773;50.010;19.972;2024-02-21T07:19:43;7.00;7.00;5.00
35654;PMS1003;21773;50.010;19.972;2024-02-21T07:22:47;6.00;6.00;5.00
35654;PMS1003;21773;50.010;19.972;2024-02-21T07:25:50;6.00;6.00;5.00
35654;PMS1003;21773;50.010;19.972;2024-02-21T07:28:53;6.25;5.75;4.25
35654;PMS1003;21773;50.010;19.972;2024-02-21T07:31:58;9.00;6.00;5.00
35654;PMS1003;21773;50.010;19.972;2024-02-21T07:35:01;6.20;6.00;6.00
35654;PMS1003;21773;50.010;19.972;2024-02-21T07:38:05;6.40;6.40;6.00
35654;PMS1003;21773;50.010;19.972;2024-02-21T07:41:08;7.00;6.00;5.00
35654;PMS1003;21773;50.010;19.972;2024-02-21T07:44:12;7.20;7.00;5.00
35654;PMS1003;21773;50.010;19.972;2024-02-21T07:47:16;7.00;6.40;5.40
35654;PMS1003;21773;50.010;19.972;2024-02-21T07:50:20;6.00;6.00;5.00
35654;PMS1003;21773;50.010;19.972;2024-02-21T07:53:23;6.50;5.50;5.00
35654;PMS1003;21773;50.010;19.972;2024-02-21T07:56:27;5.00;4.00;4.00
35654;PMS1003;21773;50.010;19.972;2024-02-21T07:59:31;6.00;6.00;5.00
35654;PMS1003;21773;50.010;19.972;2024-02-21T08:02:35;5.00;5.00;5.00
35654;PMS1003;21773;50.010;19.972;2024-02-21T08:05:39;5.00;4.00;3.60
35654;PMS1003;21773;50.010;19.972;2024-02-21T08:08:42;4.00;4.00;3.00
35654;PMS1003;21773;50.010;19.972;2024-02-21T08:11:45;7.80;5.80;5.00
35654;PMS1003;21773;50.010;19.972;2024-02-21T08:14:49;4.20;3.80;3.00
35654;PMS1003;21773;50.010;19.972;2024-02-21T08:17:53;5.00;4.00;4.00
35654;PMS1003;21773;50.010;19.972;2024-02-21T08:21:00;4.00;4.00;3.00
35654;PMS1003;21773;50.010;19.972;2024-02-21T08:24:04;6.75;5.00;4.75
35654;PMS1003;21773;50.010;19.972;2024-02-21T08:27:07;4.00;4.00;4.00
35654;PMS1003;21773;50.010;19.972;2024-02-21T08:30:11;5.00;4.00;3.00
35654;PMS1003;21773;50.010;19.972;2024-02-21T08:33:16;6.00;6.00;5.00
35654;PMS1003;21773;50.010;19.972;2024-02-21T08:36:20;4.00;4.00;3.00
35654;PMS1003;21773;50.010;19.972;2024-02-21T08:39:23;4.00;4.00;3.60
35654;PMS1003;21773;50.010;19.972;2024-02-21T08:42:27;6.00;5.25;4.00
35654;PMS1003;21773;50.010;19.972;2024-02-21T08:45:33;7.00;6.00;5.00
35654;PMS1003;21773;50.010;19.972;2024-02-21T08:48:38;5.00;5.00;4.00
35654;PMS1003;21773;50.010;19.972;2024-02-21T08:51:41;7.00;7.00;6.00
35654;PMS1003;21773;50.010;19.972;2024-02-21T08:54:45;6.50;6.50;6.00
35654;PMS1003;21773;50.010;19.972;2024-02-21T08:57:48;5.00;5.00;5.00
35654;PMS1003;21773;50.010;19.972;2024-02-21T09:00:52;8.00;6.50;5.50
35654;PMS1003;21773;50.010;19.972;2024-02-21T09:03:56;8.00;7.40;6.00
35654;PMS1003;21773;50.010;19.972;2024-02-21T09:07:00;7.00;6.00;5.60
35654;PMS1003;21773;50.010;19.972;2024-02-21T09:10:03;7.00;6.00;5.40
35654;PMS1003;21773;50.010;19.972;2024-02-21T09:13:07;7.40;7.00;6.00
35654;PMS1003;21773;50.010;19.972;2024-02-21T09:16:10;7.25;7.00;6.00
35654;PMS1003;21773;50.010;19.972;2024-02-21T09:19:14;6.00;6.00;5.00
35654;PMS1003;21773;50.010;19.972;2024-02-21T09:22:20;6.00;6.00;5.00
35654;PMS1003;21773;50.010;19.972;2024-02-21T09:25:23;4.00;3.80;2.80
35654;PMS1003;21773;50.010;19.972;2024-02-21T09:28:26;5.00;5.00;4.00
35654;PMS1003;21773;50.010;19.972;2024-02-21T09:31:29;7.00;6.00;5.00
35654;PMS1003;21773;50.010;19.972;2024-02-21T09:34:34;3.50;3.50;2.50
35654;PMS1003;21773;50.010;19.972;2024-02-21T09:37:37;6.00;5.00;4.00
35654;PMS1003;21773;50.010;19.972;2024-02-21T09:40:41;4.00;3.00;3.00
35654;PMS1003;21773;50.010;19.972;2024-02-21T09:43:44;3.00;2.00;2.00
35654;PMS1003;21773;50.010;19.972;2024-02-21T09:46:51;4.00;3.60;3.00
35654;PMS1003;21773;50.010;19.972;2024-02-21T09:50:00;4.00;3.00;3.00
35654;PMS1003;21773;50.010;19.972;2024-02-21T09:53:06;3.50;3.00;3.00
35654;PMS1003;21773;50.010;19.972;2024-02-21T09:56:09;3.00;3.00;2.60
35654;PMS1003;21773;50.010;19.972;2024-02-21T09:59:16;4.00;4.00;4.00
35654;PMS1003;21773;50.010;19.972;2024-02-21T10:02:19;4.00;4.00;3.00
35654;PMS1003;21773;50.010;19.972;2024-02-21T10:05:25;4.00;4.00;4.00
35654;PMS1003;21773;50.010;19.972;2024-02-21T10:08:29;5.00;4.60;4.00
35654;PMS1003;21773;50.010;19.972;2024-02-21T10:11:32;7.00;5.00;4.00
35654;PMS1003;21773;50.010;19.972;2024-02-21T10:14:36;4.00;4.00;4.00
35654;PMS1003;21773;50.010;19.972;2024-02-21T10:17:40;6.00;5.00;4.60
35654;PMS1003;21773;50.010;19.972;2024-02-21T10:20:44;4.00;4.00;3.00
35654;PMS1003;21773;50.010;19.972;2024-02-21T10:23:48;5.00;4.00;4.00
35654;PMS1003;21773;50.010;19.972;2024-02-21T10:26:58;5.20;5.00;4.20
35654;PMS1003;21773;50.010;19.972;2024-02-21T10:30:02;4.00;4.00;3.00
35654;PMS1003;21773;50.010;19.972;2024-02-21T10:33:06;4.00;4.00;3.00
35654;PMS1003;21773;50.010;19.972;2024-02-21T10:36:11;4.00;3.00;2.50
35654;PMS1003;21773;50.010;19.972;2024-02-21T10:39:15;3.60;3.00;3.00
35654;PMS1003;21773;50.010;19.972;2024-02-21T10:42:18;5.00;4.00;3.40
35654;PMS1003;21773;50.010;19.972;2024-02-21T10:45:26;4.00;4.00;3.00
35654;PMS1003;21773;50.010;19.972;2024-02-21T10:48:36;4.00;4.00;3.00
35654;PMS1003;21773;50.010;19.972;2024-02-21T10:51:50;4.00;4.00;3.00
35654;PMS1003;21773;50.010;19.972;2024-02-21T10:54:58;5.40;4.00;4.00
35654;PMS1003;21773;50.010;19.972;2024-02-21T10:58:07;4.00;4.00;3.80
35654;PMS1003;21773;50.010;19.972;2024-02-21T11:01:12;5.00;5.00;4.00
35654;PMS1003;21773;50.010;19.972;2024-02-21T11:04:17;5.00;4.00;4.00
35654;PMS1003;21773;50.010;19.972;2024-02-21T11:07:21;4.00;4.00;4.00
35654;PMS1003;21773;50.010;19.972;2024-02-21T11:10:25;5.00;3.80;3.00
35654;PMS1003;21773;50.010;19.972;2024-02-21T11:13:30;3.00;3.00;2.00
35654;PMS1003;21773;50.010;19.972;2024-02-21T11:16:37;4.00;4.00;3.00
35654;PMS1003;21773;50.010;19.972;2024-02-21T11:19:44;5.40;4.40;4.00
35654;PMS1003;21773;50.010;19.972;2024-02-21T11:22:49;4.00;3.00;3.00
35654;PMS1003;21773;50.010;19.972;2024-02-21T11:25:52;5.00;4.60;4.00
35654;PMS1003;21773;50.010;19.972;2024-02-21T11:29:06;5.00;4.00;3.60
35654;PMS1003;21773;50.010;19.972;2024-02-21T11:32:11;4.00;4.00;3.00
35654;PMS1003;21773;50.010;19.972;2024-02-21T11:35:19;4.00;3.20;3.00
35654;PMS1003;21773;50.010;19.972;2024-02-21T11:38:24;5.00;4.50;4.25
35654;PMS1003;21773;50.010;19.972;2024-02-21T11:41:27;5.00;5.00;4.00
35654;PMS1003;21773;50.010;19.972;2024-02-21T11:44:30;4.80;4.80;3.80
35654;PMS1003;21773;50.010;19.972;2024-02-21T11:47:34;5.00;5.00;4.60
35654;PMS1003;21773;50.010;19.972;2024-02-21T11:50:41;6.20;6.00;5.20
35654;PMS1003;21773;50.010;19.972;2024-02-21T11:53:46;6.00;6.00;5.00
35654;PMS1003;21773;50.010;19.972;2024-02-21T11:57:02;6.00;5.00;5.00
35654;PMS1003;21773;50.010;19.972;2024-02-21T12:00:12;6.60;6.00;5.60
35654;PMS1003;21773;50.010;19.972;2024-02-21T12:03:17;7.00;6.00;5.60
35654;PMS1003;21773;50.010;19.972;2024-02-21T12:06:20;7.00;7.00;6.00
35654;PMS1003;21773;50.010;19.972;2024-02-21T12:09:25;5.67;5.00;4.00
35654;PMS1003;21773;50.010;19.972;2024-02-21T12:12:29;6.40;6.40;5.40
35654;PMS1003;21773;50.010;19.972;2024-02-21T12:15:32;7.00;7.00;5.75
35654;PMS1003;21773;50.010;19.972;2024-02-21T12:18:35;6.00;5.00;5.00
35654;PMS1003;21773;50.010;19.972;2024-02-21T12:21:38;7.00;5.60;5.00
35654;PMS1003;21773;50.010;19.972;2024-02-21T12:24:43;7.60;7.00;7.00
35654;PMS1003;21773;50.010;19.972;2024-02-21T12:27:49;8.00;7.00;6.00
35654;PMS1003;21773;50.010;19.972;2024-02-21T12:30:52;8.00;7.60;6.00
35654;PMS1003;21773;50.010;19.972;2024-02-21T12:33:56;6.60;6.00;5.00
35654;PMS1003;21773;50.010;19.972;2024-02-21T12:37:00;9.00;8.00;6.00
35654;PMS1003;21773;50.010;19.972;2024-02-21T12:40:07;7.00;7.00;6.00
35654;PMS1003;21773;50.010;19.972;2024-02-21T12:43:12;8.50;7.00;6.00
35654;PMS1003;21773;50.010;19.972;2024-02-21T12:46:18;9.00;7.00;6.00
35654;PMS1003;21773;50.010;19.972;2024-02-21T12:49:21;6.40;5.60;5.00
35654;PMS1003;21773;50.010;19.972;2024-02-21T12:52:26;9.00;8.00;7.00
35654;PMS1003;21773;50.010;19.972;2024-02-21T12:55:30;6.00;6.00;5.60
35654;PMS1003;21773;50.010;19.972;2024-02-21T12:58:34;8.25;7.25;6.00
35654;PMS1003;21773;50.010;19.972;2024-02-21T13:01:37;6.00;6.00;5.00
35654;PMS1003;21773;50.010;19.972;2024-02-21T13:04:41;7.00;7.00;6.00
35654;PMS1003;21773;50.010;19.972;2024-02-21T13:07:44;5.00;5.00;4.00
35654;PMS1003;21773;50.010;19.972;2024-02-21T13:10:49;6.20;6.00;5.20
35654;PMS1003;21773;50.010;19.972;2024-02-21T13:13:56;7.00;6.00;5.00
35654;PMS1003;21773;50.010;19.972;2024-02-21T13:16:59;7.00;6.00;6.00
35654;PMS1003;21773;50.010;19.972;2024-02-21T13:20:03;7.50;7.00;6.00
35654;PMS1003;21773;50.010;19.972;2024-02-21T13:23:07;6.60;6.00;5.00
35654;PMS1003;21773;50.010;19.972;2024-02-21T13:26:12;9.67;8.67;7.00
35654;PMS1003;21773;50.010;19.972;2024-02-21T13:29:16;9.00;7.00;6.00
35654;PMS1003;21773;50.010;19.972;2024-02-21T13:32:19;6.20;6.20;5.00
35654;PMS1003;21773;50.010;19.972;2024-02-21T13:35:22;7.00;7.00;5.80
35654;PMS1003;21773;50.010;19.972;2024-02-21T13:38:25;8.00;6.60;6.00
35654;PMS1003;21773;50.010;19.972;2024-02-21T13:41:31;6.80;6.00;5.20
35654;PMS1003;21773;50.010;19.972;2024-02-21T13:44:35;8.25;7.25;6.00
35654;PMS1003;21773;50.010;19.972;2024-02-21T13:47:39;8.60;8.00;7.00
35654;PMS1003;21773;50.010;19.972;2024-02-21T13:50:42;9.75;8.00;7.00
35654;PMS1003;21773;50.010;19.972;2024-02-21T13:53:45;8.80;7.80;6.80
35654;PMS1003;21773;50.010;19.972;2024-02-21T13:56:50;9.60;8.40;6.40
35654;PMS1003;21773;50.010;19.972;2024-02-21T13:59:53;7.00;7.00;6.00
35654;PMS1003;21773;50.010;19.972;2024-02-21T14:02:56;9.00;8.00;6.00
35654;PMS1003;21773;50.010;19.972;2024-02-21T14:06:01;10.00;9.00;8.00
35654;PMS1003;21773;50.010;19.972;2024-02-21T14:09:05;8.00;7.00;6.40
35654;PMS1003;21773;50.010;19.972;2024-02-21T14:12:11;8.00;8.00;7.00
35654;PMS1003;21773;50.010;19.972;2024-02-21T14:15:14;6.00;6.00;6.00
35654;PMS1003;21773;50.010;19.972;2024-02-21T14:18:18;8.00;8.00;7.00
35654;PMS1003;21773;50.010;19.972;2024-02-21T14:21:21;8.00;7.00;7.00
35654;PMS1003;21773;50.010;19.972;2024-02-21T14:24:24;8.00;8.00;7.00
35654;PMS1003;21773;50.010;19.972;2024-02-21T14:27:30;9.00;8.00;6.00
35654;PMS1003;21773;50.010;19.972;2024-02-21T14:30:34;8.40;7.80;6.00
35654;PMS1003;21773;50.010;19.972;2024-02-21T14:33:37;10.00;10.00;7.60
35654;PMS1003;21773;50.010;19.972;2024-02-21T14:36:41;9.00;8.00;7.00
35654;PMS1003;21773;50.010;19.972;2024-02-21T14:39:44;8.00;7.60;7.00
35654;PMS1003;21773;50.010;19.972;2024-02-21T14:42:48;9.00;7.67;6.67
35654;PMS1003;21773;50.010;19.972;2024-02-21T14:45:51;8.00;8.00;6.80
35654;PMS1003;21773;50.010;19.972;2024-02-21T14:48:55;8.00;8.00;7.00
35654;PMS1003;21773;50.010;19.972;2024-02-21T14:51:58;8.00;7.00;5.00
35654;PMS1003;21773;50.010;19.972;2024-02-21T14:55:01;13.00;12.60;11.00
35654;PMS1003;21773;50.010;19.972;2024-02-21T14:58:06;10.80;8.80;7.80
35654;PMS1003;21773;50.010;19.972;2024-02-21T15:01:10;9.80;8.00;6.20
35654;PMS1003;21773;50.010;19.972;2024-02-21T15:04:14;9.00;8.00;7.40
35654;PMS1003;21773;50.010;19.972;2024-02-21T15:07:19;8.00;7.00;7.00
35654;PMS1003;21773;50.010;19.972;2024-02-21T15:10:25;8.00;8.00;6.00
35654;PMS1003;21773;50.010;19.972;2024-02-21T15:13:30;9.00;8.60;8.00
35654;PMS1003;21773;50.010;19.972;2024-02-21T15:16:33;11.00;9.00;8.00
35654;PMS1003;21773;50.010;19.972;2024-02-21T15:19:37;10.00;8.00;6.40
35654;PMS1003;21773;50.010;19.972;2024-02-21T15:22:45;11.20;10.20;9.20
35654;PMS1003;21773;50.010;19.972;2024-02-21T15:25:49;10.80;10.00;9.00
35654;PMS1003;21773;50.010;19.972;2024-02-21T15:28:53;8.40;8.00;7.00
35654;PMS1003;21773;50.010;19.972;2024-02-21T15:31:57;10.00;8.00;6.00
35654;PMS1003;21773;50.010;19.972;2024-02-21T15:35:00;10.00;9.00;8.00
35654;PMS1003;21773;50.010;19.972;2024-02-21T15:38:04;8.20;6.20;5.60
35654;PMS1003;21773;50.010;19.972;2024-02-21T15:41:07;10.00;9.00;8.00
35654;PMS1003;21773;50.010;19.972;2024-02-21T15:44:12;8.33;7.00;6.00
35654;PMS1003;21773;50.010;19.972;2024-02-21T15:47:16;10.00;8.50;7.00
35654;PMS1003;21773;50.010;19.972;2024-02-21T15:50:21;8.50;8.00;7.00
35654;PMS1003;21773;50.010;19.972;2024-02-21T15:53:24;8.00;7.00;6.00
35654;PMS1003;21773;50.010;19.972;2024-02-21T15:56:27;8.00;7.25;7.00
35654;PMS1003;21773;50.010;19.972;2024-02-21T15:59:32;9.00;9.00;7.60
35654;PMS1003;21773;50.010;19.972;2024-02-21T16:02:35;8.00;7.00;5.60
35654;PMS1003;21773;50.010;19.972;2024-02-21T16:05:38;9.60;9.00;8.00
35654;PMS1003;21773;50.010;19.972;2024-02-21T16:08:41;9.50;9.00;7.00
35654;PMS1003;21773;50.010;19.972;2024-02-21T16:11:44;8.00;7.00;6.00
35654;PMS1003;21773;50.010;19.972;2024-02-21T16:14:50;8.00;7.00;6.00
35654;PMS1003;21773;50.010;19.972;2024-02-21T16:17:53;8.00;7.50;6.00
35654;PMS1003;21773;50.010;19.972;2024-02-21T16:20:57;8.00;7.00;6.00
35654;PMS1003;21773;50.010;19.972;2024-02-21T16:24:00;9.00;8.60;7.60
35654;PMS1003;21773;50.010;19.972;2024-02-21T16:27:04;10.00;8.25;7.00
35654;PMS1003;21773;50.010;19.972;2024-02-21T16:30:12;8.00;8.00;7.00
35654;PMS1003;21773;50.010;19.972;2024-02-21T16:33:18;9.00;8.00;6.00
35654;PMS1003;21773;50.010;19.972;2024-02-21T16:36:21;8.20;8.20;6.80
35654;PMS1003;21773;50.010;19.972;2024-02-21T16:39:24;9.60;8.60;7.60
35654;PMS1003;21773;50.010;19.972;2024-02-21T16:42:28;9.00;8.00;6.50
35654;PMS1003;21773;50.010;19.972;2024-02-21T16:45:32;10.40;10.00;9.00
35654;PMS1003;21773;50.010;19.972;2024-02-21T16:48:36;9.00;8.80;8.00
35654;PMS1003;21773;50.010;19.972;2024-02-21T16:51:40;9.00;9.00;8.00
35654;PMS1003;21773;50.010;19.972;2024-02-21T16:54:43;8.60;8.60;8.00
35654;PMS1003;21773;50.010;19.972;2024-02-21T16:57:46;9.40;9.40;8.00
35654;PMS1003;21773;50.010;19.972;2024-02-21T17:00:50;10.00;9.00;8.00
35654;PMS1003;21773;50.010;19.972;2024-02-21T17:03:54;10.00;9.00;8.00
35654;PMS1003;21773;50.010;19.972;2024-02-21T17:06:57;11.80;9.60;8.00
35654;PMS1003;21773;50.010;19.972;2024-02-21T17:10:01;10.40;10.40;9.00
35654;PMS1003;21773;50.010;19.972;2024-02-21T17:13:06;9.40;9.00;8.00
35654;PMS1003;21773;50.010;19.972;2024-02-21T17:16:11;8.00;8.00;6.50
35654;PMS1003;21773;50.010;19.972;2024-02-21T17:19:14;8.00;8.00;7.00
35654;PMS1003;21773;50.010;19.972;2024-02-21T17:22:17;10.00;8.80;7.20
35654;PMS1003;21773;50.010;19.972;2024-02-21T17:25:22;10.60;8.00;6.60
35654;PMS1003;21773;50.010;19.972;2024-02-21T17:28:25;8.00;8.00;7.00
35654;PMS1003;21773;50.010;19.972;2024-02-21T17:31:29;9.00;9.00;7.20
35654;PMS1003;21773;50.010;19.972;2024-02-21T17:34:33;7.00;6.80;6.00